createdAt,value
2022-08-09T00:01:54.876Z,0.00
2022-08-09T00:07:18.266Z,0.00
2022-08-09T00:12:51.595Z,0.00
2022-08-09T00:18:21.905Z,0.00
2022-08-09T00:23:57.861Z,0.00
2022-08-09T00:29:39.344Z,0.00
2022-08-09T00:34:58.599Z,0.00
2022-08-09T00:40:30.142Z,0.00
2022-08-09T00:46:01.038Z,0.00
2022-08-09T00:51:33.949Z,0.00
2022-08-09T00:57:10.690Z,0.00
2022-08-09T03:04:16.770Z,0.00
2022-08-09T03:09:16.071Z,0.00
2022-08-09T03:14:48.159Z,0.00
2022-08-09T03:20:43.388Z,0.00
2022-08-09T03:26:14.965Z,1.00
2022-08-09T03:31:59.502Z,4.00
2022-08-09T03:37:54.586Z,11.00
2022-08-09T03:42:50.364Z,25.00
2022-08-09T03:48:30.609Z,51.00
2022-08-09T03:53:54.048Z,92.00
2022-08-09T03:59:27.246Z,152.00
2022-08-09T04:04:58.432Z,236.00
2022-08-09T04:10:30.510Z,356.00
2022-08-09T04:16:20.256Z,755.00
2022-08-09T04:21:38.470Z,1434.00
2022-08-09T04:27:05.225Z,854.00
2022-08-09T04:32:38.562Z,293.00
2022-08-09T04:38:09.096Z,19.00
2022-08-09T04:43:53.650Z,0.00
2022-08-09T04:49:14.559Z,0.00
2022-08-09T04:54:45.018Z,131.00
2022-08-09T05:00:17.244Z,1935.00
2022-08-09T05:05:52.070Z,2034.00
2022-08-09T05:11:21.214Z,2142.00
2022-08-09T05:16:59.564Z,2224.00
2022-08-09T05:22:33.227Z,2326.00
2022-08-09T05:27:57.859Z,2434.00
2022-08-09T05:33:33.164Z,3066.00
2022-08-09T05:39:01.566Z,0.00
2022-08-09T05:44:34.889Z,0.00
2022-08-09T05:50:25.804Z,0.00
2022-08-09T05:55:36.889Z,0.00
2022-08-09T06:01:08.807Z,0.00
2022-08-09T06:06:45.141Z,0.00
2022-08-09T06:12:12.691Z,0.00
2022-08-09T06:17:44.573Z,0.00
2022-08-09T06:23:16.395Z,0.00
2022-08-09T06:28:47.913Z,0.00
2022-08-09T06:34:19.981Z,0.00
2022-08-09T06:39:59.848Z,0.00
2022-08-09T06:46:06.940Z,0.00
2022-08-09T06:50:55.103Z,0.00
2022-08-09T06:56:31.154Z,0.00
2022-08-09T07:02:03.589Z,0.00
2022-08-09T07:08:00.551Z,0.00
2022-08-09T07:13:18.563Z,0.00
2022-08-09T07:18:34.203Z,0.00
2022-08-09T07:24:06.277Z,0.00
2022-08-09T07:29:42.888Z,0.00
2022-08-09T07:35:10.719Z,0.00
2022-08-09T07:41:08.331Z,0.00
2022-08-09T07:46:13.248Z,0.00
2022-08-09T07:52:06.122Z,0.00
2022-08-09T07:57:17.435Z,0.00
2022-08-09T08:02:49.248Z,0.00
2022-08-09T08:09:01.718Z,0.00
2022-08-09T08:13:56.891Z,0.00
2022-08-09T08:19:29.221Z,0.00
2022-08-09T08:30:26.840Z,0.00
2022-08-09T08:36:00.435Z,0.00
2022-08-09T08:41:42.026Z,0.00
2022-08-09T08:47:04.485Z,0.00
2022-08-09T08:58:05.483Z,0.00
2022-08-09T09:03:37.840Z,0.00
2022-08-09T09:09:21.251Z,0.00
2022-08-09T09:14:41.043Z,0.00
2022-08-09T09:20:15.545Z,0.00
2022-08-09T09:26:01.380Z,1996.00
2022-08-09T09:31:17.489Z,2209.00
2022-08-09T09:36:53.253Z,2283.00
2022-08-09T09:42:21.347Z,2366.00
2022-08-09T09:47:56.366Z,2361.00
2022-08-09T09:53:43.720Z,2420.00
2022-08-09T09:58:56.222Z,2459.00
2022-08-09T10:04:30.993Z,2438.00
2022-08-09T10:10:00.112Z,2519.00
2022-08-09T10:16:08.674Z,2511.00
2022-08-09T10:21:03.810Z,2523.00
2022-08-09T10:26:35.615Z,2600.00
2022-08-09T10:37:39.516Z,2710.00
2022-08-09T10:43:13.022Z,2747.00
2022-08-09T10:48:43.942Z,2748.00
2022-08-09T10:54:15.738Z,2806.00
2022-08-09T10:59:57.423Z,2801.00
2022-08-09T11:05:24.980Z,2807.00
2022-08-09T11:10:54.684Z,2810.00
2022-08-09T11:16:35.040Z,2858.00
2022-08-09T11:22:05.453Z,2829.00
2022-08-09T11:28:05.224Z,2850.00
2022-08-09T11:32:59.658Z,2819.00
2022-08-09T11:38:33.293Z,2822.00
2022-08-09T11:44:03.197Z,2778.00
2022-08-09T11:49:42.566Z,2757.00
2022-08-09T11:55:06.876Z,2770.00
2022-08-09T12:00:38.663Z,2768.00
2022-08-09T12:06:10.721Z,2714.00
2022-08-09T12:12:02.694Z,2706.00
2022-08-09T12:17:33.893Z,2644.00
2022-08-09T12:22:46.337Z,2622.00
2022-08-09T12:29:11.816Z,2602.00
2022-08-09T12:33:58.688Z,2570.00
2022-08-09T12:39:21.975Z,2577.00
2022-08-09T12:44:54.734Z,2535.00
2022-08-09T12:50:26.053Z,2524.00
2022-08-09T12:56:15.326Z,2451.00
2022-08-09T13:01:29.820Z,2450.00
2022-08-09T13:07:01.995Z,2425.00
2022-08-09T13:12:40.047Z,2420.00
2022-08-09T13:18:09.800Z,2411.00
2022-08-09T13:24:16.696Z,2387.00
2022-08-09T13:29:09.753Z,2387.00
2022-08-09T13:34:42.004Z,2336.00
2022-08-09T13:41:56.538Z,2365.00
2022-08-09T13:46:42.194Z,2341.00
2022-08-09T13:51:18.127Z,2323.00
2022-08-09T13:56:50.487Z,2320.00
2022-08-09T14:02:35.374Z,2294.00
2022-08-09T14:07:55.023Z,2282.00
2022-08-09T14:14:15.662Z,2270.00
2022-08-09T14:18:59.683Z,2251.00
2022-08-09T14:24:32.426Z,2256.00
2022-08-09T14:30:33.989Z,2273.00
2022-08-09T14:35:52.327Z,2236.00
2022-08-09T14:41:34.580Z,2244.00
2022-08-09T14:47:04.714Z,2232.00
2022-08-09T14:52:11.463Z,2232.00
2022-08-09T14:57:43.863Z,2215.00
2022-08-09T15:03:16.651Z,2190.00
2022-08-09T15:08:56.386Z,2192.00
2022-08-09T15:14:19.604Z,2166.00
2022-08-09T15:19:59.673Z,2150.00
2022-08-09T15:25:38.893Z,2139.00
2022-08-09T15:31:08.724Z,2120.00
2022-08-09T15:36:29.413Z,2102.00
2022-08-09T15:41:59.829Z,2088.00
2022-08-09T15:47:47.211Z,2055.00
2022-08-09T15:58:35.572Z,1998.00
2022-08-09T16:04:13.596Z,1971.00
2022-08-09T16:10:02.291Z,1944.00
2022-08-09T16:16:10.256Z,1921.00
2022-08-09T16:20:43.281Z,1873.00
2022-08-09T16:26:19.941Z,1845.00
2022-08-09T16:32:18.513Z,1798.00
2022-08-09T16:34:02.510Z,1792.00
2022-08-09T16:39:47.956Z,1740.00
2022-08-09T16:45:03.862Z,1677.00
2022-08-09T16:50:38.722Z,1646.00
2022-08-09T16:56:09.861Z,1607.00
2022-08-09T17:01:39.443Z,1560.00
2022-08-09T17:08:46.352Z,1508.00
2022-08-09T17:12:43.607Z,1465.00
2022-08-09T17:18:15.496Z,1411.00
2022-08-09T17:24:28.222Z,1355.00
2022-08-09T17:29:20.237Z,1295.00
2022-08-09T17:35:03.874Z,1223.00
2022-08-09T17:40:26.211Z,1148.00
2022-08-09T17:46:03.417Z,1071.00
2022-08-09T17:51:25.778Z,983.00
2022-08-09T17:56:57.682Z,888.00
2022-08-09T18:02:33.537Z,790.00
2022-08-09T18:08:01.382Z,685.00
2022-08-09T18:13:40.037Z,578.00
2022-08-09T18:20:57.988Z,469.00
2022-08-09T18:24:36.148Z,355.00
2022-08-09T18:30:40.885Z,255.00
2022-08-09T18:35:59.496Z,170.00
2022-08-09T18:41:11.332Z,104.00
2022-08-09T18:46:49.541Z,57.00
2022-08-09T18:52:16.058Z,27.00
2022-08-09T18:57:46.581Z,12.00
2022-08-09T19:03:18.674Z,5.00
2022-08-09T19:08:55.430Z,2.00
2022-08-09T19:14:24.491Z,0.00
2022-08-09T19:20:00.597Z,0.00
2022-08-09T19:25:41.872Z,0.00
2022-08-09T19:30:56.627Z,1.00
2022-08-09T19:36:32.785Z,1.00
2022-08-09T19:42:00.281Z,1.00
2022-08-09T19:47:31.861Z,1.00
2022-08-09T19:53:04.165Z,1.00
2022-08-09T19:58:35.359Z,1.00
2022-08-09T20:04:18.958Z,1.00
2022-08-09T20:09:44.551Z,1.00
2022-08-09T20:16:34.223Z,1.00
2022-08-09T20:20:43.685Z,1.00
2022-08-09T20:26:15.612Z,1.00
2022-08-09T20:32:28.901Z,0.00
2022-08-09T20:37:21.440Z,1.00
2022-08-09T20:42:53.256Z,1.00
2022-08-09T20:48:22.219Z,1.00
2022-08-09T20:53:54.053Z,1.00
2022-08-09T21:00:22.266Z,1.00
2022-08-09T21:05:57.136Z,1.00
2022-08-09T21:10:30.502Z,1.00
2022-08-09T21:16:03.270Z,1.00
2022-08-09T21:21:53.121Z,1.00
2022-08-09T21:27:50.416Z,0.00
2022-08-09T21:32:38.702Z,1.00
2022-08-09T21:38:10.546Z,1.00
2022-08-09T21:43:58.101Z,1.00
2022-08-09T21:49:13.649Z,1.00
2022-08-09T21:54:46.036Z,1.00
2022-08-09T22:00:17.292Z,0.00
2022-08-09T22:05:51.219Z,0.00
2022-08-09T22:12:05.371Z,0.00
2022-08-09T22:16:52.635Z,0.00
2022-08-09T22:22:25.499Z,0.00
2022-08-09T22:27:57.328Z,0.00
2022-08-09T22:33:37.611Z,0.00
2022-08-09T22:39:01.426Z,0.00
2022-08-09T22:50:04.775Z,0.00
2022-08-09T22:56:29.431Z,0.00
2022-08-09T23:06:40.160Z,0.00
2022-08-09T23:12:11.970Z,0.00
2022-08-09T23:17:44.019Z,0.00
2022-08-09T23:23:18.314Z,0.00
2022-08-09T23:28:50.918Z,0.00
2022-08-09T23:34:22.564Z,0.00
2022-08-09T23:39:54.347Z,0.00
2022-08-09T23:45:37.984Z,0.00
2022-08-09T23:50:57.973Z,0.00
2022-08-09T23:56:52.776Z,0.00
